createdAt,value
2018-07-25T00:02:11.567Z,5.10
2018-07-25T00:04:41.789Z,6.27
2018-07-25T00:07:12.056Z,5.30
2018-07-25T00:09:41.788Z,5.03
2018-07-25T00:12:11.329Z,4.60
2018-07-25T00:14:42.373Z,5.80
2018-07-25T00:17:12.583Z,5.33
2018-07-25T00:19:42.407Z,5.77
2018-07-25T00:22:12.290Z,5.70
2018-07-25T00:24:42.140Z,4.80
2018-07-25T00:27:11.851Z,6.90
2018-07-25T00:29:41.940Z,5.17
2018-07-25T00:32:11.772Z,6.30
2018-07-25T00:34:41.625Z,5.03
2018-07-25T00:37:11.427Z,5.43
2018-07-25T00:39:41.133Z,5.67
2018-07-25T00:42:11.186Z,4.63
2018-07-25T00:44:42.106Z,5.17
2018-07-25T00:47:11.997Z,5.60
2018-07-25T00:49:41.921Z,5.37
2018-07-25T00:52:12.070Z,4.80
2018-07-25T00:54:41.780Z,5.43
2018-07-25T00:57:11.549Z,4.93
2018-07-25T00:59:41.284Z,5.17
2018-07-25T01:02:11.073Z,5.00
2018-07-25T01:04:40.767Z,4.63
2018-07-25T01:07:10.568Z,5.53
2018-07-25T01:09:40.290Z,5.27
2018-07-25T01:12:10.414Z,4.90
2018-07-25T01:14:40.015Z,5.13
2018-07-25T01:17:09.642Z,5.47
2018-07-25T01:19:39.422Z,5.23
2018-07-25T01:22:09.336Z,5.40
2018-07-25T01:24:38.998Z,4.60
2018-07-25T01:27:08.880Z,4.97
2018-07-25T01:29:38.844Z,5.03
2018-07-25T01:32:08.556Z,5.33
2018-07-25T01:34:38.625Z,5.37
2018-07-25T01:37:08.465Z,4.40
2018-07-25T01:39:38.720Z,6.00
2018-07-25T01:42:08.381Z,5.13
2018-07-25T01:44:38.251Z,5.03
2018-07-25T01:47:08.052Z,5.33
2018-07-25T01:49:37.709Z,4.87
2018-07-25T01:52:07.161Z,4.77
2018-07-25T01:54:36.674Z,4.57
2018-07-25T01:57:06.705Z,5.57
2018-07-25T01:59:36.570Z,5.40
2018-07-25T02:02:06.110Z,5.30
2018-07-25T02:04:35.566Z,4.80
2018-07-25T02:07:05.024Z,5.17
2018-07-25T02:09:34.332Z,5.33
2018-07-25T02:12:03.702Z,5.00
2018-07-25T02:14:33.652Z,5.57
2018-07-25T02:17:02.933Z,5.27
2018-07-25T02:19:32.371Z,6.00
2018-07-25T02:22:01.637Z,5.87
2018-07-25T02:24:30.973Z,5.47
2018-07-25T02:27:00.300Z,7.13
2018-07-25T02:29:29.663Z,5.60
2018-07-25T02:31:59.067Z,6.10
2018-07-25T02:34:28.400Z,5.77
2018-07-25T02:36:57.864Z,5.53
2018-07-25T02:39:27.281Z,6.83
2018-07-25T02:41:56.712Z,6.73
2018-07-25T02:44:26.172Z,6.23
2018-07-25T02:46:55.651Z,6.30
2018-07-25T02:49:25.072Z,5.80
2018-07-25T02:51:54.939Z,6.00
2018-07-25T02:54:24.269Z,6.63
2018-07-25T02:56:53.777Z,6.00
2018-07-25T02:59:23.406Z,6.27
2018-07-25T03:01:52.695Z,5.57
2018-07-25T03:04:21.944Z,5.60
2018-07-25T03:06:51.401Z,6.27
2018-07-25T03:09:20.893Z,5.87
2018-07-25T03:11:50.513Z,5.13
2018-07-25T03:14:20.333Z,5.97
2018-07-25T03:16:49.966Z,5.37
2018-07-25T03:19:19.898Z,6.17
2018-07-25T03:21:49.763Z,6.10
2018-07-25T03:24:20.484Z,5.63
2018-07-25T03:26:50.075Z,5.47
2018-07-25T03:29:19.931Z,6.57
2018-07-25T03:31:49.738Z,6.20
2018-07-25T03:34:19.552Z,6.27
2018-07-25T03:36:49.439Z,5.80
2018-07-25T03:39:19.003Z,5.90
2018-07-25T03:41:48.788Z,7.30
2018-07-25T03:44:18.580Z,6.40
2018-07-25T03:46:48.504Z,6.53
2018-07-25T03:49:18.530Z,6.73
2018-07-25T03:51:48.346Z,6.67
2018-07-25T03:54:20.512Z,5.83
2018-07-25T03:56:50.607Z,7.27
2018-07-25T03:59:20.386Z,5.90
2018-07-25T04:01:50.400Z,6.10
2018-07-25T04:04:20.252Z,6.27
2018-07-25T04:06:50.257Z,7.90
2018-07-25T04:09:20.220Z,5.67
2018-07-25T04:11:49.947Z,6.10
2018-07-25T04:14:19.635Z,6.37
2018-07-25T04:16:49.416Z,6.33
2018-07-25T04:19:19.229Z,7.70
2018-07-25T04:21:49.348Z,6.73
2018-07-25T04:24:19.397Z,7.20
2018-07-25T04:26:49.110Z,7.80
2018-07-25T04:29:19.120Z,6.90
2018-07-25T04:31:48.857Z,7.77
2018-07-25T04:34:18.514Z,7.20
2018-07-25T04:36:48.468Z,7.40
2018-07-25T04:39:18.557Z,7.33
2018-07-25T04:41:48.371Z,7.50
2018-07-25T04:44:18.122Z,6.60
2018-07-25T04:46:48.115Z,6.87
2018-07-25T04:49:17.602Z,6.07
2018-07-25T04:51:47.123Z,6.50
2018-07-25T04:54:16.665Z,7.70
2018-07-25T04:56:46.366Z,6.20
2018-07-25T04:59:16.099Z,6.60
2018-07-25T05:01:45.961Z,7.83
2018-07-25T05:04:15.631Z,7.07
2018-07-25T05:06:45.358Z,6.80
2018-07-25T05:09:15.242Z,6.67
2018-07-25T05:11:44.958Z,6.33
2018-07-25T05:14:14.607Z,6.00
2018-07-25T05:16:44.535Z,5.77
2018-07-25T05:19:15.052Z,6.53
2018-07-25T05:21:45.236Z,6.27
2018-07-25T05:24:16.408Z,5.37
2018-07-25T05:26:46.740Z,5.70
2018-07-25T05:29:16.729Z,6.37
2018-07-25T05:31:46.463Z,5.77
2018-07-25T05:34:16.332Z,5.97
2018-07-25T05:36:45.959Z,5.30
2018-07-25T05:39:15.565Z,6.13
2018-07-25T05:41:45.277Z,5.53
2018-07-25T05:44:14.890Z,6.03
2018-07-25T05:46:44.285Z,5.20
2018-07-25T05:49:14.007Z,5.97
2018-07-25T05:51:43.485Z,5.33
2018-07-25T05:54:13.013Z,5.07
2018-07-25T05:56:42.759Z,5.40
2018-07-25T05:59:12.453Z,5.87
2018-07-25T06:01:42.020Z,5.63
2018-07-25T06:04:11.689Z,6.30
2018-07-25T06:06:41.174Z,5.20
2018-07-25T06:09:11.301Z,6.63
2018-07-25T06:11:41.287Z,6.37
2018-07-25T06:14:10.932Z,5.30
2018-07-25T06:16:41.498Z,5.70
2018-07-25T06:19:11.409Z,6.27
2018-07-25T06:21:44.346Z,5.43
2018-07-25T06:24:14.719Z,5.57
2018-07-25T06:26:49.547Z,5.17
2018-07-25T06:29:20.312Z,5.10
2018-07-25T06:31:49.859Z,4.83
2018-07-25T06:34:19.357Z,5.67
2018-07-25T06:36:49.246Z,5.90
2018-07-25T06:39:18.911Z,5.73
2018-07-25T06:41:48.689Z,5.37
2018-07-25T06:44:18.398Z,5.83
2018-07-25T06:46:47.979Z,4.73
2018-07-25T06:49:18.023Z,4.17
2018-07-25T06:51:49.275Z,4.37
2018-07-25T06:54:18.921Z,3.90
2018-07-25T06:56:49.202Z,4.00
2018-07-25T06:59:19.266Z,3.20
2018-07-25T07:01:49.139Z,4.30
2018-07-25T07:04:18.907Z,4.77
2018-07-25T07:06:48.561Z,4.10
2018-07-25T07:09:18.375Z,4.63
2018-07-25T07:11:48.393Z,4.40
2018-07-25T07:14:17.822Z,3.80
2018-07-25T07:16:48.230Z,4.17
2018-07-25T07:19:17.978Z,5.80
2018-07-25T07:21:47.836Z,3.90
2018-07-25T07:24:17.514Z,3.97
2018-07-25T07:26:47.508Z,4.50
2018-07-25T07:29:16.990Z,4.30
2018-07-25T07:31:46.610Z,3.67
2018-07-25T07:34:16.404Z,3.50
2018-07-25T07:36:46.244Z,3.27
2018-07-25T07:39:15.788Z,2.90
2018-07-25T07:41:45.854Z,3.80
2018-07-25T07:44:15.686Z,3.57
2018-07-25T07:46:45.396Z,3.00
2018-07-25T07:49:15.703Z,3.30
2018-07-25T07:51:46.565Z,2.97
2018-07-25T07:54:16.411Z,3.40
2018-07-25T07:56:46.286Z,3.10
2018-07-25T07:59:15.894Z,2.47
2018-07-25T08:01:46.119Z,2.63
2018-07-25T08:04:16.152Z,2.20
2018-07-25T08:06:46.120Z,2.50
2018-07-25T08:09:16.080Z,3.70
2018-07-25T08:11:45.629Z,2.50
2018-07-25T08:14:15.396Z,3.67
2018-07-25T08:16:45.218Z,2.53
2018-07-25T08:19:15.121Z,3.43
2018-07-25T08:21:44.918Z,3.03
2018-07-25T08:24:15.644Z,2.23
2018-07-25T08:26:45.886Z,3.60
2018-07-25T08:29:15.772Z,3.30
2018-07-25T08:31:45.858Z,3.50
2018-07-25T08:34:16.193Z,2.60
2018-07-25T08:36:46.046Z,3.07
2018-07-25T08:39:15.996Z,2.90
2018-07-25T08:41:45.972Z,3.80
2018-07-25T08:44:15.760Z,3.20
2018-07-25T08:46:45.569Z,3.60
2018-07-25T08:49:15.524Z,3.10
2018-07-25T08:51:45.523Z,3.30
2018-07-25T08:54:15.151Z,3.10
2018-07-25T08:56:44.863Z,2.97
2018-07-25T08:59:15.292Z,3.50
2018-07-25T09:01:45.204Z,3.20
2018-07-25T09:04:15.535Z,2.90
2018-07-25T09:06:45.639Z,2.60
2018-07-25T09:09:15.451Z,2.90
2018-07-25T09:11:45.425Z,4.50
2018-07-25T09:14:15.722Z,3.97
2018-07-25T09:16:45.647Z,4.00
2018-07-25T09:19:15.139Z,3.97
2018-07-25T09:21:44.846Z,3.90
2018-07-25T09:24:14.863Z,3.70
2018-07-25T09:26:44.934Z,4.23
2018-07-25T09:29:15.287Z,4.63
2018-07-25T09:31:46.119Z,3.43
2018-07-25T09:34:16.718Z,3.60
2018-07-25T09:36:46.955Z,3.73
2018-07-25T09:39:17.780Z,3.10
2018-07-25T09:41:47.790Z,3.57
2018-07-25T09:44:17.908Z,3.90
2018-07-25T09:46:47.909Z,3.57
2018-07-25T09:49:17.945Z,3.80
2018-07-25T09:51:48.638Z,3.30
2018-07-25T09:54:18.556Z,3.43
2018-07-25T09:56:52.017Z,3.23
2018-07-25T09:59:21.437Z,3.20
2018-07-25T10:01:51.273Z,3.43
2018-07-25T10:04:21.218Z,3.40
2018-07-25T10:06:50.797Z,3.37
2018-07-25T10:09:21.376Z,3.67
2018-07-25T10:11:51.444Z,3.70
2018-07-25T10:14:21.409Z,3.83
2018-07-25T10:16:51.160Z,2.90
2018-07-25T10:19:20.555Z,3.47
2018-07-25T10:21:50.294Z,3.37
2018-07-25T10:24:20.372Z,3.07
2018-07-25T10:26:51.812Z,3.40
2018-07-25T10:29:21.563Z,3.10
2018-07-25T10:31:52.555Z,4.20
2018-07-25T10:34:23.032Z,2.90
2018-07-25T10:36:53.665Z,3.17
2018-07-25T10:39:24.428Z,4.33
2018-07-25T10:41:54.197Z,3.50
2018-07-25T10:44:23.954Z,3.70
2018-07-25T10:46:53.727Z,3.63
2018-07-25T10:49:23.491Z,2.90
2018-07-25T10:51:54.368Z,3.67
2018-07-25T10:54:24.573Z,3.40
2018-07-25T10:56:54.614Z,3.17
2018-07-25T10:59:24.932Z,3.30
2018-07-25T11:01:54.792Z,3.20
2018-07-25T11:04:24.423Z,2.90
2018-07-25T11:06:53.821Z,4.47
2018-07-25T11:09:23.341Z,3.10
2018-07-25T11:11:53.023Z,3.67
2018-07-25T11:14:22.556Z,4.20
2018-07-25T11:18:17.016Z,3.70
2018-07-25T11:20:47.614Z,3.80
2018-07-25T11:23:19.378Z,2.83
2018-07-25T11:25:49.912Z,3.63
2018-07-25T11:28:21.413Z,3.30
2018-07-25T11:30:51.397Z,3.50
2018-07-25T11:33:22.558Z,3.47
2018-07-25T11:35:52.080Z,2.73
2018-07-25T11:38:22.357Z,2.90
2018-07-25T11:40:52.012Z,4.20
2018-07-25T11:43:21.981Z,3.73
2018-07-25T11:45:52.918Z,3.23
2018-07-25T11:48:25.324Z,2.90
2018-07-25T11:50:55.114Z,3.07
2018-07-25T11:53:25.932Z,2.73
2018-07-25T11:55:55.846Z,3.37
2018-07-25T11:58:26.645Z,3.87
2018-07-25T12:00:56.117Z,3.63
2018-07-25T12:03:25.485Z,3.80
2018-07-25T12:05:57.438Z,3.20
2018-07-25T12:08:26.999Z,3.40
2018-07-25T12:10:56.416Z,3.00
2018-07-25T12:13:26.335Z,2.97
2018-07-25T12:15:55.643Z,2.90
2018-07-25T12:18:25.528Z,2.80
2018-07-25T12:20:55.743Z,3.47
2018-07-25T12:23:25.467Z,2.90
2018-07-25T12:25:54.858Z,2.77
2018-07-25T12:28:24.541Z,3.43
2018-07-25T12:30:54.389Z,3.43
2018-07-25T12:33:24.274Z,2.83
2018-07-25T12:35:54.455Z,3.67
2018-07-25T12:38:25.195Z,3.57
2018-07-25T12:40:55.035Z,3.47
2018-07-25T12:43:24.638Z,3.73
2018-07-25T12:45:54.231Z,3.83
2018-07-25T12:48:24.454Z,4.40
2018-07-25T12:50:55.141Z,3.50
2018-07-25T12:53:24.932Z,4.40
2018-07-25T12:55:54.912Z,3.10
2018-07-25T12:58:24.557Z,3.23
2018-07-25T13:00:54.105Z,3.40
2018-07-25T13:03:23.691Z,3.90
2018-07-25T13:05:53.092Z,3.27
2018-07-25T13:08:22.417Z,3.10
2018-07-25T13:10:52.185Z,3.03
2018-07-25T13:13:22.069Z,2.60
2018-07-25T13:15:51.880Z,3.27
2018-07-25T13:18:21.678Z,3.10
2018-07-25T13:20:51.439Z,3.37
2018-07-25T13:23:21.588Z,3.30
2018-07-25T13:25:51.573Z,3.57
2018-07-25T13:28:22.203Z,3.33
2018-07-25T13:30:51.967Z,3.20
2018-07-25T13:33:21.520Z,3.77
2018-07-25T13:35:51.107Z,3.00
2018-07-25T13:38:20.856Z,2.93
2018-07-25T13:40:50.733Z,3.70
2018-07-25T13:43:20.340Z,3.10
2018-07-25T13:45:50.248Z,3.07
2018-07-25T13:48:19.751Z,4.37
2018-07-25T13:50:49.642Z,2.90
2018-07-25T13:53:19.359Z,3.03
2018-07-25T13:55:49.457Z,3.73
2018-07-25T13:58:20.668Z,3.30
2018-07-25T14:00:50.557Z,4.00
2018-07-25T14:03:20.132Z,3.60
2018-07-25T14:05:49.959Z,2.60
2018-07-25T14:08:19.938Z,3.30
2018-07-25T14:10:49.750Z,3.77
2018-07-25T14:13:19.701Z,3.70
2018-07-25T14:15:50.135Z,3.70
2018-07-25T14:18:20.097Z,3.53
2018-07-25T14:20:49.807Z,4.70
2018-07-25T14:23:19.727Z,3.83
2018-07-25T14:25:49.860Z,4.60
2018-07-25T14:28:19.920Z,3.80
2018-07-25T14:30:50.541Z,3.83
2018-07-25T14:33:20.711Z,4.37
2018-07-25T14:35:50.674Z,3.37
2018-07-25T14:38:20.628Z,4.20
2018-07-25T14:40:50.360Z,3.93
2018-07-25T14:43:20.311Z,4.03
2018-07-25T14:45:50.217Z,4.00
2018-07-25T14:48:20.234Z,3.93
2018-07-25T14:50:50.233Z,4.43
2018-07-25T14:53:20.283Z,4.60
2018-07-25T14:55:50.546Z,4.67
2018-07-25T14:58:20.832Z,5.53
2018-07-25T15:00:51.688Z,4.90
2018-07-25T15:03:25.601Z,5.03
2018-07-25T15:05:56.739Z,4.60
2018-07-25T15:08:27.424Z,4.23
2018-07-25T15:10:56.849Z,4.27
2018-07-25T15:13:27.417Z,5.10
2018-07-25T15:15:57.082Z,4.90
2018-07-25T15:18:26.518Z,5.47
2018-07-25T15:20:55.912Z,4.60
2018-07-25T15:24:04.609Z,5.27
2018-07-25T15:26:34.222Z,5.13
2018-07-25T15:29:03.966Z,5.60
2018-07-25T15:31:33.594Z,5.93
2018-07-25T15:34:02.940Z,4.73
2018-07-25T15:36:41.987Z,5.87
2018-07-25T15:39:18.636Z,5.60
2018-07-25T15:41:49.841Z,5.37
2018-07-25T15:44:21.196Z,5.53
2018-07-25T15:46:51.473Z,5.57
2018-07-25T15:49:21.610Z,5.17
2018-07-25T15:51:51.774Z,5.50
2018-07-25T15:54:22.852Z,6.77
2018-07-25T15:56:53.169Z,6.70
2018-07-25T15:59:23.444Z,8.00
2018-07-25T16:01:53.160Z,7.63
2018-07-25T16:04:23.150Z,7.87
2018-07-25T16:06:53.296Z,7.07
2018-07-25T16:09:22.734Z,6.47
2018-07-25T16:11:54.776Z,7.60
2018-07-25T16:14:24.803Z,7.70
2018-07-25T16:16:55.069Z,7.60
2018-07-25T16:19:24.899Z,7.27
2018-07-25T16:21:59.029Z,7.90
2018-07-25T16:24:30.062Z,6.53
2018-07-25T16:27:00.413Z,6.60
2018-07-25T16:29:30.467Z,5.90
2018-07-25T16:32:02.186Z,8.00
2018-07-25T16:34:32.902Z,8.13
2018-07-25T16:37:02.485Z,7.87
2018-07-25T16:39:32.527Z,7.70
2018-07-25T16:42:02.057Z,7.07
2018-07-25T16:44:31.597Z,7.53
2018-07-25T16:47:04.239Z,6.93
2018-07-25T16:49:35.775Z,6.87
2018-07-25T16:52:05.921Z,7.50
2018-07-25T16:54:36.601Z,6.23
2018-07-25T16:57:06.971Z,6.97
2018-07-25T16:59:37.282Z,10.03
2018-07-25T17:02:07.458Z,7.93
2018-07-25T17:04:37.246Z,5.97
2018-07-25T17:07:07.984Z,6.10
2018-07-25T17:09:37.976Z,6.57
2018-07-25T17:12:07.968Z,7.10
2018-07-25T17:14:37.984Z,7.60
2018-07-25T17:17:08.035Z,8.60
2018-07-25T17:19:40.683Z,6.50
2018-07-25T17:22:11.572Z,7.50
2018-07-25T17:24:43.721Z,6.80
2018-07-25T17:27:13.662Z,7.23
2018-07-25T17:29:45.404Z,6.73
2018-07-25T17:32:15.906Z,6.33
2018-07-25T17:34:46.752Z,7.00
2018-07-25T17:37:18.847Z,6.83
2018-07-25T17:39:49.490Z,6.63
2018-07-25T17:42:20.631Z,7.67
2018-07-25T17:44:51.012Z,9.27
2018-07-25T17:47:21.423Z,11.07
2018-07-25T17:49:52.003Z,7.60
2018-07-25T17:52:23.658Z,6.07
2018-07-25T17:54:54.001Z,5.80
2018-07-25T17:57:25.799Z,7.30
2018-07-25T17:59:57.858Z,6.50
2018-07-25T18:02:28.436Z,6.13
2018-07-25T18:04:58.797Z,7.33
2018-07-25T18:07:28.990Z,5.70
2018-07-25T18:09:59.554Z,9.57
2018-07-25T18:12:34.219Z,6.10
2018-07-25T18:15:04.150Z,6.50
2018-07-25T18:17:36.401Z,5.60
2018-07-25T18:20:08.897Z,6.17
2018-07-25T18:22:43.150Z,6.50
2018-07-25T18:25:15.513Z,5.80
2018-07-25T18:27:46.298Z,6.80
2018-07-25T18:30:18.306Z,5.93
2018-07-25T18:32:49.054Z,7.00
2018-07-25T18:35:19.775Z,7.50
2018-07-25T18:37:51.985Z,6.17
2018-07-25T18:40:22.656Z,6.30
2018-07-25T18:42:53.398Z,5.67
2018-07-25T18:45:24.139Z,6.47
2018-07-25T18:47:55.145Z,6.00
2018-07-25T18:50:25.201Z,6.73
2018-07-25T18:52:55.526Z,5.50
2018-07-25T18:55:26.824Z,7.03
2018-07-25T18:57:56.520Z,5.60
2018-07-25T19:00:25.972Z,7.47
2018-07-25T19:02:55.711Z,6.50
2018-07-25T19:05:30.338Z,6.33
2018-07-25T19:08:01.252Z,7.50
2018-07-25T19:10:31.428Z,7.03
2018-07-25T19:13:00.921Z,8.03
2018-07-25T19:15:32.476Z,6.87
2018-07-25T19:18:02.500Z,7.27
2018-07-25T19:20:32.209Z,7.23
2018-07-25T19:23:02.300Z,7.33
2018-07-25T19:25:31.681Z,7.33
2018-07-25T19:28:01.174Z,7.70
2018-07-25T19:30:33.553Z,6.97
2018-07-25T19:33:05.352Z,7.27
2018-07-25T19:35:34.916Z,7.07
2018-07-25T19:38:04.460Z,7.27
2018-07-25T19:40:38.173Z,7.47
2018-07-25T19:43:10.124Z,7.40
2018-07-25T19:45:40.319Z,7.77
2018-07-25T19:48:12.999Z,7.70
2018-07-25T19:50:45.224Z,7.83
2018-07-25T19:53:16.124Z,8.20
2018-07-25T19:55:46.371Z,7.07
2018-07-25T19:58:16.652Z,6.43
2018-07-25T20:00:46.577Z,8.40
2018-07-25T20:03:17.422Z,7.90
2018-07-25T20:05:48.959Z,9.13
2018-07-25T20:08:19.699Z,7.60
2018-07-25T20:10:50.017Z,8.07
2018-07-25T20:13:22.286Z,8.40
2018-07-25T20:15:58.171Z,8.37
2018-07-25T20:18:30.177Z,8.80
2018-07-25T20:20:59.947Z,8.17
2018-07-25T20:23:29.871Z,9.23
2018-07-25T20:26:09.973Z,8.27
2018-07-25T20:28:40.470Z,7.40
2018-07-25T20:31:13.590Z,8.73
2018-07-25T20:33:47.882Z,8.53
2018-07-25T20:36:24.076Z,9.03
2018-07-25T20:38:54.553Z,8.07
2018-07-25T20:41:24.527Z,8.73
2018-07-25T20:43:55.557Z,8.47
2018-07-25T20:46:25.660Z,8.70
2018-07-25T20:48:55.529Z,9.60
2018-07-25T20:51:25.307Z,9.90
2018-07-25T20:53:55.641Z,8.60
2018-07-25T20:56:26.401Z,8.97
2018-07-25T20:58:58.147Z,9.17
2018-07-25T21:01:28.169Z,8.87
2018-07-25T21:03:57.792Z,8.03
2018-07-25T21:06:27.779Z,8.93
2018-07-25T21:08:57.388Z,9.50
2018-07-25T21:11:27.084Z,9.57
2018-07-25T21:13:57.151Z,9.40
2018-07-25T21:16:27.275Z,9.73
2018-07-25T21:18:57.306Z,8.37
2018-07-25T21:21:28.332Z,9.30
2018-07-25T21:23:58.737Z,10.07
2018-07-25T21:26:28.518Z,9.10
2018-07-25T21:28:59.989Z,9.30
2018-07-25T21:31:29.745Z,10.40
2018-07-25T21:33:59.336Z,9.10
2018-07-25T21:36:29.104Z,9.77
2018-07-25T21:38:58.608Z,9.73
2018-07-25T21:41:27.989Z,11.23
2018-07-25T21:43:57.432Z,10.00
2018-07-25T21:46:26.831Z,11.60
2018-07-25T21:48:56.171Z,10.47
2018-07-25T21:51:25.668Z,9.80
2018-07-25T21:53:54.994Z,9.83
2018-07-25T21:56:24.360Z,11.20
2018-07-25T21:58:54.018Z,11.83
2018-07-25T22:01:23.569Z,9.97
2018-07-25T22:03:53.461Z,9.70
2018-07-25T22:06:22.746Z,11.40
2018-07-25T22:08:52.092Z,10.77
2018-07-25T22:11:26.278Z,11.07
2018-07-25T22:13:57.821Z,9.87
2018-07-25T22:16:28.332Z,10.83
2018-07-25T22:18:58.119Z,10.87
2018-07-25T22:21:27.437Z,11.20
2018-07-25T22:23:57.003Z,11.57
2018-07-25T22:26:26.349Z,11.03
2018-07-25T22:28:55.985Z,10.30
2018-07-25T22:31:25.510Z,10.90
2018-07-25T22:33:55.022Z,11.60
2018-07-25T22:36:25.371Z,11.53
2018-07-25T22:38:55.898Z,11.47
2018-07-25T22:41:25.372Z,11.17
2018-07-25T22:43:54.599Z,10.73
2018-07-25T22:46:24.346Z,9.10
2018-07-25T22:48:54.876Z,9.83
2018-07-25T22:51:24.300Z,10.07
2018-07-25T22:53:53.990Z,10.70
2018-07-25T22:56:23.702Z,9.67
2018-07-25T22:58:53.530Z,11.00
2018-07-25T23:01:22.913Z,9.60
2018-07-25T23:03:52.356Z,9.27
2018-07-25T23:06:22.458Z,10.10
2018-07-25T23:08:52.212Z,9.63
2018-07-25T23:11:22.235Z,9.10
2018-07-25T23:13:51.922Z,9.30
2018-07-25T23:16:21.695Z,9.70
2018-07-25T23:18:51.023Z,10.00
2018-07-25T23:21:21.059Z,9.37
2018-07-25T23:23:50.849Z,8.73
2018-07-25T23:26:20.502Z,8.47
2018-07-25T23:28:51.087Z,8.70
2018-07-25T23:31:20.363Z,8.80
2018-07-25T23:33:50.566Z,9.40
2018-07-25T23:36:20.733Z,8.90
2018-07-25T23:38:50.559Z,8.53
2018-07-25T23:41:20.238Z,9.00
2018-07-25T23:43:49.931Z,8.30
2018-07-25T23:46:19.314Z,9.20
2018-07-25T23:48:49.010Z,9.50
2018-07-25T23:51:19.376Z,9.23
2018-07-25T23:53:49.192Z,8.10
2018-07-25T23:56:19.577Z,22.80
2018-07-25T23:58:50.011Z,8.50
